createdAt,value
2017-04-06T00:00:10.263Z,9.99
2017-04-06T00:00:36.344Z,10.01
2017-04-06T00:01:02.471Z,10.23
2017-04-06T00:01:28.574Z,10.12
2017-04-06T00:01:54.657Z,10.19
2017-04-06T00:02:20.756Z,10.13
2017-04-06T00:02:46.838Z,10.13
2017-04-06T00:03:12.916Z,10.15
2017-04-06T00:03:38.995Z,10.2
2017-04-06T00:04:05.078Z,10.17
2017-04-06T00:04:31.160Z,10.13
2017-04-06T00:04:57.240Z,10.28
2017-04-06T00:05:23.342Z,10.23
2017-04-06T00:05:49.424Z,10.28
2017-04-06T00:06:15.507Z,10.3
2017-04-06T00:06:41.610Z,10.31
2017-04-06T00:07:07.688Z,10.3
2017-04-06T00:07:33.770Z,10.28
2017-04-06T00:07:59.854Z,10.31
2017-04-06T00:08:25.930Z,10.3
2017-04-06T00:08:52.011Z,10.31
2017-04-06T00:09:18.089Z,10.23
2017-04-06T00:09:44.168Z,10.33
2017-04-06T00:10:10.250Z,10.28
2017-04-06T00:10:36.330Z,10.28
2017-04-06T00:11:02.406Z,10.19
2017-04-06T00:11:28.489Z,10.26
2017-04-06T00:11:54.573Z,10.31
2017-04-06T00:12:20.676Z,10.26
2017-04-06T00:12:46.752Z,10.26
2017-04-06T00:13:12.833Z,10.31
2017-04-06T00:13:38.919Z,10.26
2017-04-06T00:14:05.020Z,10.26
2017-04-06T00:14:31.097Z,10.28
2017-04-06T00:14:57.179Z,10.22
2017-04-06T00:15:23.255Z,10.26
2017-04-06T00:15:49.335Z,10.3
2017-04-06T00:16:15.416Z,10.31
2017-04-06T00:16:41.497Z,10.34
2017-04-06T00:17:07.575Z,10.28
2017-04-06T00:17:33.658Z,10.28
2017-04-06T00:17:59.737Z,10.28
2017-04-06T00:18:25.816Z,10.2
2017-04-06T00:18:51.896Z,10.15
2017-04-06T00:19:17.977Z,10.3
2017-04-06T00:19:44.057Z,10.28
2017-04-06T00:20:10.137Z,10.33
2017-04-06T00:20:36.220Z,10.26
2017-04-06T00:21:02.301Z,10.26
2017-04-06T00:21:28.379Z,10.22
2017-04-06T00:21:54.461Z,10.3
2017-04-06T00:22:20.589Z,10.28
2017-04-06T00:22:46.690Z,10.26
2017-04-06T00:23:12.768Z,10.3
2017-04-06T00:23:38.850Z,10.26
2017-04-06T00:24:04.930Z,10.25
2017-04-06T00:24:31.011Z,10.26
2017-04-06T00:24:57.090Z,10.33
2017-04-06T00:25:23.171Z,10.33
2017-04-06T00:25:49.250Z,10.33
2017-04-06T00:26:15.355Z,10.28
2017-04-06T00:26:41.455Z,10.31
2017-04-06T00:27:07.535Z,10.26
2017-04-06T00:27:33.613Z,10.37
2017-04-06T00:27:59.693Z,10.37
2017-04-06T00:28:25.775Z,10.38
2017-04-06T00:28:51.852Z,10.34
2017-04-06T00:29:17.957Z,10.31
2017-04-06T00:29:44.036Z,10.26
2017-04-06T00:30:10.137Z,10.3
2017-04-06T00:30:36.216Z,10.25
2017-04-06T00:31:02.299Z,10.25
2017-04-06T00:31:28.379Z,10.25
2017-04-06T00:31:54.479Z,10.25
2017-04-06T00:32:20.559Z,10.23
2017-04-06T00:32:46.637Z,10.37
2017-04-06T00:33:12.717Z,10.28
2017-04-06T00:33:38.798Z,10.37
2017-04-06T00:34:04.881Z,10.38
2017-04-06T00:34:30.959Z,10.38
2017-04-06T00:34:57.042Z,10.42
2017-04-06T00:35:23.117Z,10.37
2017-04-06T00:35:49.199Z,10.41
2017-04-06T00:36:15.278Z,10.42
2017-04-06T00:36:41.357Z,10.42
2017-04-06T00:37:07.434Z,10.42
2017-04-06T00:37:33.538Z,10.41
2017-04-06T00:37:59.621Z,10.44
2017-04-06T00:38:25.698Z,10.41
2017-04-06T00:38:51.780Z,10.41
2017-04-06T00:39:17.861Z,10.51
2017-04-06T00:39:43.940Z,10.4
2017-04-06T00:40:10.020Z,10.44
2017-04-06T00:40:36.103Z,10.46
2017-04-06T00:41:02.186Z,10.42
2017-04-06T00:41:28.290Z,10.46
2017-04-06T00:41:54.368Z,10.42
2017-04-06T00:42:20.452Z,10.4
2017-04-06T00:42:46.532Z,10.4
2017-04-06T00:43:12.614Z,10.33
2017-04-06T00:43:38.714Z,10.4
2017-04-06T00:44:04.797Z,10.46
2017-04-06T00:44:30.879Z,10.44
2017-04-06T00:44:56.958Z,10.42
2017-04-06T00:45:23.061Z,10.44
2017-04-06T00:45:49.186Z,10.4
2017-04-06T00:46:15.266Z,10.38
2017-04-06T00:46:41.342Z,10.37
2017-04-06T00:47:07.425Z,10.4
2017-04-06T00:47:33.509Z,10.4
2017-04-06T00:47:59.588Z,10.42
2017-04-06T00:48:25.669Z,10.4
2017-04-06T00:48:51.773Z,10.41
2017-04-06T00:49:17.855Z,10.4
2017-04-06T00:49:43.957Z,10.41
2017-04-06T00:50:10.036Z,10.49
2017-04-06T00:50:36.119Z,10.57
2017-04-06T00:51:02.246Z,10.51
2017-04-06T00:51:28.327Z,10.48
2017-04-06T00:51:54.428Z,10.48
2017-04-06T00:52:20.509Z,10.54
2017-04-06T00:52:46.589Z,10.46
2017-04-06T00:53:12.666Z,10.4
2017-04-06T00:53:38.769Z,10.41
2017-04-06T00:54:04.852Z,10.4
2017-04-06T00:54:30.930Z,10.44
2017-04-06T00:54:57.009Z,10.44
2017-04-06T00:55:23.091Z,10.44
2017-04-06T00:55:49.189Z,10.46
2017-04-06T00:56:15.267Z,10.44
2017-04-06T00:56:41.649Z,10.46
2017-04-06T00:57:07.728Z,10.38
2017-04-06T00:57:33.806Z,10.44
2017-04-06T00:57:59.886Z,10.44
2017-04-06T00:58:25.983Z,10.4
2017-04-06T00:58:52.043Z,10.42
2017-04-06T00:59:18.123Z,10.46
2017-04-06T00:59:44.203Z,10.41
2017-04-06T01:00:10.286Z,10.44
2017-04-06T01:00:36.367Z,10.42
2017-04-06T01:01:02.473Z,10.41
2017-04-06T01:01:28.554Z,10.41
2017-04-06T01:01:54.634Z,10.4
2017-04-06T01:02:20.715Z,10.42
2017-04-06T01:02:46.793Z,10.4
2017-04-06T01:03:12.919Z,10.46
2017-04-06T01:03:39.000Z,10.42
2017-04-06T01:04:05.104Z,10.4
2017-04-06T01:04:31.208Z,10.44
2017-04-06T01:04:57.289Z,10.41
2017-04-06T01:05:23.370Z,10.44
2017-04-06T01:05:49.473Z,10.44
2017-04-06T01:06:15.558Z,10.42
2017-04-06T01:06:41.655Z,10.44
2017-04-06T01:07:07.760Z,10.48
2017-04-06T01:07:33.887Z,10.4
2017-04-06T01:07:59.965Z,10.41
2017-04-06T01:08:26.045Z,10.42
2017-04-06T01:08:52.125Z,10.41
2017-04-06T01:09:18.205Z,10.46
2017-04-06T01:09:44.284Z,10.44
2017-04-06T01:10:10.365Z,10.4
2017-04-06T01:10:36.443Z,10.41
2017-04-06T01:11:02.522Z,10.41
2017-04-06T01:11:28.624Z,10.4
2017-04-06T01:11:54.704Z,10.38
2017-04-06T01:12:20.784Z,10.54
2017-04-06T01:12:46.863Z,10.48
2017-04-06T01:13:12.969Z,10.42
2017-04-06T01:13:39.048Z,10.46
2017-04-06T01:14:05.128Z,10.44
2017-04-06T01:14:31.209Z,10.4
2017-04-06T01:14:57.291Z,10.46
2017-04-06T01:15:23.366Z,10.51
2017-04-06T01:15:49.448Z,10.49
2017-04-06T01:16:15.531Z,10.41
2017-04-06T01:16:41.609Z,10.44
2017-04-06T01:17:07.691Z,10.41
2017-04-06T01:17:33.794Z,10.31
2017-04-06T01:17:59.871Z,10.31
2017-04-06T01:18:25.953Z,10.33
2017-04-06T01:18:52.057Z,10.31
2017-04-06T01:19:18.136Z,10.25
2017-04-06T01:19:44.216Z,10.23
2017-04-06T01:20:10.296Z,10.28
2017-04-06T01:20:36.376Z,10.31
2017-04-06T01:21:02.454Z,10.3
2017-04-06T01:21:28.536Z,10.26
2017-04-06T01:21:54.619Z,10.25
2017-04-06T01:22:20.697Z,10.35
2017-04-06T01:22:46.778Z,10.33
2017-04-06T01:23:12.859Z,10.23
2017-04-06T01:23:38.940Z,10.26
2017-04-06T01:24:05.017Z,10.26
2017-04-06T01:24:31.100Z,10.28
2017-04-06T01:24:57.186Z,10.28
2017-04-06T01:25:23.287Z,10.25
2017-04-06T01:25:49.393Z,10.28
2017-04-06T01:26:15.472Z,10.23
2017-04-06T01:26:41.553Z,10.25
2017-04-06T01:27:07.982Z,10.22
2017-04-06T01:27:34.064Z,10.25
2017-04-06T01:28:00.142Z,10.26
2017-04-06T01:28:26.221Z,10.33
2017-04-06T01:28:52.302Z,10.35
2017-04-06T01:29:18.382Z,10.31
2017-04-06T01:29:44.485Z,10.31
2017-04-06T01:30:10.566Z,10.31
2017-04-06T01:30:36.647Z,10.35
2017-04-06T01:31:02.725Z,10.34
2017-04-06T01:31:28.871Z,10.35
2017-04-06T01:31:54.949Z,10.37
2017-04-06T01:32:21.027Z,10.46
2017-04-06T01:32:47.107Z,10.44
2017-04-06T01:33:13.212Z,10.41
2017-04-06T01:33:39.290Z,10.44
2017-04-06T01:34:05.372Z,10.44
2017-04-06T01:34:31.458Z,10.34
2017-04-06T01:34:57.556Z,10.23
2017-04-06T01:35:23.655Z,10.3
2017-04-06T01:35:49.736Z,10.42
2017-04-06T01:36:15.840Z,10.44
2017-04-06T01:36:41.919Z,10.46
2017-04-06T01:37:07.999Z,10.41
2017-04-06T01:37:34.081Z,10.4
2017-04-06T01:38:00.160Z,10.48
2017-04-06T01:38:26.261Z,10.38
2017-04-06T01:38:52.347Z,10.25
2017-04-06T01:39:18.422Z,10.3
2017-04-06T01:39:44.500Z,10.35
2017-04-06T01:40:10.583Z,10.31
2017-04-06T01:40:36.666Z,10.25
2017-04-06T01:41:02.746Z,10.26
2017-04-06T01:41:28.823Z,10.23
2017-04-06T01:41:54.907Z,10.25
2017-04-06T01:42:20.981Z,10.25
2017-04-06T01:42:47.059Z,10.2
2017-04-06T01:43:13.142Z,10.26
2017-04-06T01:43:39.244Z,10.25
2017-04-06T01:44:05.322Z,10.25
2017-04-06T01:44:31.427Z,10.31
2017-04-06T01:44:57.509Z,10.25
2017-04-06T01:45:23.588Z,10.25
2017-04-06T01:45:49.694Z,10.25
2017-04-06T01:46:15.776Z,10.34
2017-04-06T01:46:41.852Z,10.26
2017-04-06T01:47:07.932Z,10.3
2017-04-06T01:47:34.035Z,10.2
2017-04-06T01:48:00.116Z,10.17
2017-04-06T01:48:26.196Z,10.17
2017-04-06T01:48:52.278Z,10.15
2017-04-06T01:49:18.359Z,10.19
2017-04-06T01:49:44.460Z,10.28
2017-04-06T01:50:10.538Z,10.28
2017-04-06T01:50:36.617Z,10.25
2017-04-06T01:51:02.697Z,10.31
2017-04-06T01:51:28.797Z,10.23
2017-04-06T01:51:54.879Z,10.25
2017-04-06T01:52:20.959Z,10.3
2017-04-06T01:52:47.036Z,10.31
2017-04-06T01:53:13.118Z,10.17
2017-04-06T01:53:39.223Z,10.3
2017-04-06T01:54:05.303Z,10.28
2017-04-06T01:54:31.379Z,10.23
2017-04-06T01:54:57.460Z,10.25
2017-04-06T01:55:23.538Z,10.28
2017-04-06T01:55:49.618Z,10.3
2017-04-06T01:56:15.698Z,10.19
2017-04-06T01:56:41.775Z,10.22
2017-04-06T01:57:07.879Z,10.3
2017-04-06T01:57:33.960Z,10.22
2017-04-06T01:58:00.042Z,10.17
2017-04-06T01:58:26.120Z,10.26
2017-04-06T01:58:52.200Z,10.25
2017-04-06T01:59:18.280Z,10.28
2017-04-06T01:59:44.358Z,10.33
2017-04-06T02:00:10.439Z,10.28
2017-04-06T02:00:36.540Z,10.23
2017-04-06T02:01:02.619Z,10.25
2017-04-06T02:01:28.699Z,10.3
2017-04-06T02:01:54.800Z,10.23
2017-04-06T02:02:20.879Z,10.28
2017-04-06T02:02:46.959Z,10.26
2017-04-06T02:03:13.062Z,10.26
2017-04-06T02:03:39.142Z,10.23
2017-04-06T02:04:05.220Z,10.22
2017-04-06T02:04:31.300Z,10.23
2017-04-06T02:04:57.402Z,10.22
2017-04-06T02:05:23.527Z,10.23
2017-04-06T02:05:49.608Z,10.19
2017-04-06T02:06:15.687Z,10.25
2017-04-06T02:06:41.764Z,10.28
2017-04-06T02:07:07.846Z,10.28
2017-04-06T02:07:33.977Z,10.34
2017-04-06T02:08:00.055Z,10.25
2017-04-06T02:08:26.137Z,10.3
2017-04-06T02:08:52.217Z,10.25
2017-04-06T02:09:18.321Z,10.2
2017-04-06T02:09:44.401Z,10.16
2017-04-06T02:10:10.502Z,10.2
2017-04-06T02:10:36.583Z,10.17
2017-04-06T02:11:02.664Z,10.23
2017-04-06T02:11:28.741Z,10.17
2017-04-06T02:11:54.825Z,10.22
2017-04-06T02:12:20.902Z,10.17
2017-04-06T02:12:46.981Z,10.19
2017-04-06T02:13:13.063Z,10.19
2017-04-06T02:13:39.166Z,10.19
2017-04-06T02:14:05.246Z,10.28
2017-04-06T02:14:31.347Z,10.26
2017-04-06T02:14:57.429Z,10.25
2017-04-06T02:15:23.553Z,10.28
2017-04-06T02:15:49.632Z,10.22
2017-04-06T02:16:15.711Z,10.34
2017-04-06T02:16:41.791Z,10.26
2017-04-06T02:17:07.871Z,10.34
2017-04-06T02:17:34.052Z,10.35
2017-04-06T02:18:00.154Z,10.35
2017-04-06T02:18:26.231Z,10.28
2017-04-06T02:18:52.336Z,10.3
2017-04-06T02:19:18.417Z,10.34
2017-04-06T02:19:44.496Z,10.28
2017-04-06T02:20:10.602Z,10.25
2017-04-06T02:20:36.683Z,10.3
2017-04-06T02:21:02.765Z,10.28
2017-04-06T02:21:28.865Z,10.26
2017-04-06T02:21:54.944Z,10.31
2017-04-06T02:22:21.048Z,10.31
2017-04-06T02:22:47.125Z,10.25
2017-04-06T02:23:13.204Z,10.35
2017-04-06T02:23:39.287Z,10.23
2017-04-06T02:24:05.390Z,10.15
2017-04-06T02:24:31.468Z,10.2
2017-04-06T02:24:57.572Z,10.15
2017-04-06T02:25:23.651Z,10.19
2017-04-06T02:25:49.729Z,10.22
2017-04-06T02:26:15.809Z,10.2
2017-04-06T02:26:41.891Z,10.13
2017-04-06T02:27:07.995Z,10.17
2017-04-06T02:27:34.073Z,10.2
2017-04-06T02:28:00.162Z,10.15
2017-04-06T02:28:26.243Z,10.16
2017-04-06T02:28:52.322Z,10.15
2017-04-06T02:29:18.403Z,10.19
2017-04-06T02:29:44.509Z,10.2
2017-04-06T02:30:10.589Z,10.19
2017-04-06T02:30:36.694Z,10.16
2017-04-06T02:31:02.796Z,10.1
2017-04-06T02:31:28.874Z,10.15
2017-04-06T02:31:54.978Z,10.19
2017-04-06T02:32:21.103Z,10.04
2017-04-06T02:32:47.205Z,9.99
2017-04-06T02:33:13.328Z,10.04
2017-04-06T02:33:39.408Z,9.95
2017-04-06T02:34:05.513Z,9.95
2017-04-06T02:34:31.593Z,9.91
2017-04-06T02:34:57.670Z,9.92
2017-04-06T02:35:23.774Z,9.97
2017-04-06T02:35:49.851Z,10.01
2017-04-06T02:36:15.930Z,9.94
2017-04-06T02:36:42.011Z,9.98
2017-04-06T02:37:08.114Z,10.04
2017-04-06T02:37:34.193Z,10.12
2017-04-06T02:38:00.276Z,10.16
2017-04-06T02:38:26.358Z,10.09
2017-04-06T02:38:52.436Z,9.98
2017-04-06T02:39:18.518Z,10.13
2017-04-06T02:39:44.599Z,10.16
2017-04-06T02:40:10.678Z,10.16
2017-04-06T02:40:36.758Z,10.05
2017-04-06T02:41:02.840Z,10.07
2017-04-06T02:41:28.945Z,10.15
2017-04-06T02:41:55.024Z,10.07
2017-04-06T02:42:21.124Z,10.13
2017-04-06T02:42:47.205Z,10.07
2017-04-06T02:43:13.289Z,9.97
2017-04-06T02:43:39.368Z,9.99
2017-04-06T02:44:05.449Z,10.05
2017-04-06T02:44:31.530Z,10.04
2017-04-06T02:44:57.611Z,10.05
2017-04-06T02:45:23.689Z,10.05
2017-04-06T02:45:49.770Z,10.1
2017-04-06T02:46:15.849Z,10.09
2017-04-06T02:46:41.928Z,10.05
2017-04-06T02:47:08.009Z,10.16
2017-04-06T02:47:34.090Z,10.15
2017-04-06T02:48:00.171Z,10.19
2017-04-06T02:48:26.251Z,10.17
2017-04-06T02:48:52.331Z,10.22
2017-04-06T02:49:18.410Z,10.07
2017-04-06T02:49:44.489Z,10.22
2017-04-06T02:50:10.572Z,10.13
2017-04-06T02:50:36.654Z,10.15
2017-04-06T02:51:02.732Z,10.19
2017-04-06T02:51:28.813Z,10.2
2017-04-06T02:51:54.895Z,10.26
2017-04-06T02:52:20.997Z,10.28
2017-04-06T02:52:47.076Z,10.2
2017-04-06T02:53:13.178Z,10.25
2017-04-06T02:53:39.257Z,10.26
2017-04-06T02:54:05.335Z,10.3
2017-04-06T02:54:31.416Z,10.23
2017-04-06T02:54:57.544Z,10.2
2017-04-06T02:55:23.623Z,10.2
2017-04-06T02:55:49.700Z,10.17
2017-04-06T02:56:15.780Z,10.17
2017-04-06T02:56:41.862Z,10.2
2017-04-06T02:57:07.940Z,10.22
2017-04-06T02:57:34.023Z,10.22
2017-04-06T02:58:00.103Z,10.2
2017-04-06T02:58:26.181Z,10.28
2017-04-06T02:58:52.262Z,10.33
2017-04-06T02:59:18.365Z,10.23
2017-04-06T02:59:44.443Z,10.22
2017-04-06T03:00:10.523Z,10.25
2017-04-06T03:00:36.624Z,10.23
2017-04-06T03:01:02.702Z,10.3
2017-04-06T03:01:28.782Z,10.31
2017-04-06T03:01:54.863Z,10.3
2017-04-06T03:02:20.987Z,10.16
2017-04-06T03:02:47.068Z,10.22
2017-04-06T03:03:13.150Z,10.17
2017-04-06T03:03:39.229Z,10.16
2017-04-06T03:04:05.309Z,10.15
2017-04-06T03:04:31.389Z,10.07
2017-04-06T03:04:57.469Z,10.13
2017-04-06T03:05:23.550Z,10.07
2017-04-06T03:05:49.627Z,10.04
2017-04-06T03:06:15.708Z,10.05
2017-04-06T03:06:41.810Z,10.05
2017-04-06T03:07:07.891Z,9.98
2017-04-06T03:07:33.973Z,10.02
2017-04-06T03:08:00.078Z,10.01
2017-04-06T03:08:26.161Z,9.98
2017-04-06T03:08:52.237Z,9.97
2017-04-06T03:09:18.341Z,9.99
2017-04-06T03:09:44.420Z,9.95
2017-04-06T03:10:10.499Z,9.99
2017-04-06T03:10:36.579Z,9.95
2017-04-06T03:11:02.659Z,9.97
2017-04-06T03:11:28.760Z,10.04
2017-04-06T03:11:54.840Z,10.05
2017-04-06T03:12:20.918Z,10.05
2017-04-06T03:12:46.996Z,10.1
2017-04-06T03:13:13.079Z,10.12
2017-04-06T03:13:39.157Z,10.23
2017-04-06T03:14:05.239Z,10.17
2017-04-06T03:14:31.320Z,10.17
2017-04-06T03:14:57.402Z,10.23
2017-04-06T03:15:23.505Z,10.16
2017-04-06T03:15:49.584Z,10.17
2017-04-06T03:16:15.663Z,10.17
2017-04-06T03:16:41.748Z,10.17
2017-04-06T03:17:07.826Z,10.2
2017-04-06T03:17:33.907Z,10.17
2017-04-06T03:17:59.987Z,10.19
2017-04-06T03:18:26.069Z,10.22
2017-04-06T03:18:52.149Z,10.2
2017-04-06T03:19:18.229Z,10.17
2017-04-06T03:19:44.312Z,10.17
2017-04-06T03:20:10.416Z,10.22
2017-04-06T03:20:36.518Z,10.25
2017-04-06T03:21:02.600Z,10.26
2017-04-06T03:21:28.703Z,10.23
2017-04-06T03:21:54.780Z,10.22
2017-04-06T03:22:20.859Z,10.23
2017-04-06T03:22:46.938Z,10.22
2017-04-06T03:23:13.018Z,10.17
2017-04-06T03:23:39.122Z,10.16
2017-04-06T03:24:05.201Z,10.12
2017-04-06T03:24:31.284Z,10.15
2017-04-06T03:24:57.361Z,10.12
2017-04-06T03:25:23.464Z,10.16
2017-04-06T03:25:49.545Z,10.12
2017-04-06T03:26:15.669Z,10.05
2017-04-06T03:26:41.749Z,10.09
2017-04-06T03:27:07.855Z,10.05
2017-04-06T03:27:33.938Z,9.99
2017-04-06T03:28:00.019Z,10.12
2017-04-06T03:28:26.098Z,10.1
2017-04-06T03:28:52.176Z,10.07
2017-04-06T03:29:18.256Z,10.07
2017-04-06T03:29:44.336Z,10.1
2017-04-06T03:30:10.416Z,10.09
2017-04-06T03:30:36.495Z,10.05
2017-04-06T03:31:02.571Z,9.92
2017-04-06T03:31:28.653Z,10.09
2017-04-06T03:31:54.758Z,10.05
2017-04-06T03:32:20.860Z,10.05
2017-04-06T03:32:46.964Z,10.1
2017-04-06T03:33:13.042Z,10.1
2017-04-06T03:33:39.123Z,10.1
2017-04-06T03:34:05.203Z,10.05
2017-04-06T03:34:31.282Z,9.92
2017-04-06T03:34:57.387Z,9.97
2017-04-06T03:35:23.465Z,9.92
2017-04-06T03:35:49.544Z,9.98
2017-04-06T03:36:15.647Z,9.89
2017-04-06T03:36:41.774Z,9.92
2017-04-06T03:37:07.851Z,9.97
2017-04-06T03:37:33.931Z,10.01
2017-04-06T03:38:00.012Z,9.95
2017-04-06T03:38:26.092Z,9.95
2017-04-06T03:38:52.170Z,9.99
2017-04-06T03:39:18.252Z,9.97
2017-04-06T03:39:44.332Z,9.94
2017-04-06T03:40:10.411Z,9.97
2017-04-06T03:40:36.491Z,9.99
2017-04-06T03:41:02.573Z,10.01
2017-04-06T03:41:28.672Z,10.12
2017-04-06T03:41:54.751Z,10.04
2017-04-06T03:42:20.833Z,10.07
2017-04-06T03:42:46.912Z,10.04
2017-04-06T03:43:13.014Z,10.09
2017-04-06T03:43:39.095Z,10.09
2017-04-06T03:44:05.175Z,10.02
2017-04-06T03:44:31.252Z,10.07
2017-04-06T03:44:57.332Z,10.1
2017-04-06T03:45:23.410Z,10.09
2017-04-06T03:45:49.491Z,9.99
2017-04-06T03:46:15.575Z,10.17
2017-04-06T03:46:41.674Z,10.05
2017-04-06T03:47:07.753Z,10.07
2017-04-06T03:47:33.832Z,10.04
2017-04-06T03:47:59.914Z,10.04
2017-04-06T03:48:25.990Z,10.09
2017-04-06T03:48:52.073Z,10.05
2017-04-06T03:49:18.155Z,10.01
2017-04-06T03:49:44.238Z,10.09
2017-04-06T03:50:10.316Z,10.15
2017-04-06T03:50:36.398Z,9.99
2017-04-06T03:51:02.477Z,10.12
2017-04-06T03:51:28.554Z,10.15
2017-04-06T03:51:54.636Z,10.05
2017-04-06T03:52:20.714Z,10.07
2017-04-06T03:52:46.795Z,10.09
2017-04-06T03:53:12.875Z,10.07
2017-04-06T03:53:38.957Z,10.05
2017-04-06T03:54:05.035Z,9.97
2017-04-06T03:54:31.114Z,9.95
2017-04-06T03:54:57.219Z,10.02
2017-04-06T03:55:23.323Z,9.95
2017-04-06T03:55:49.422Z,9.91
2017-04-06T03:56:15.501Z,9.99
2017-04-06T03:56:41.586Z,10.01
2017-04-06T03:57:07.667Z,9.95
2017-04-06T03:57:33.746Z,9.98
2017-04-06T03:57:59.827Z,10.02
2017-04-06T03:58:25.931Z,10.07
2017-04-06T03:58:52.009Z,10.12
2017-04-06T03:59:18.089Z,10.12
2017-04-06T03:59:44.191Z,10.02
2017-04-06T04:00:10.270Z,10.02
2017-04-06T04:00:36.372Z,10.15
2017-04-06T04:01:02.453Z,10.09
2017-04-06T04:01:28.532Z,10.09
2017-04-06T04:01:54.630Z,10.07
2017-04-06T04:02:20.711Z,10.02
2017-04-06T04:02:46.790Z,10.02
2017-04-06T04:03:12.868Z,10.02
2017-04-06T04:03:38.948Z,10.05
2017-04-06T04:04:05.059Z,10.04
2017-04-06T04:04:31.109Z,10.02
2017-04-06T04:04:57.190Z,10.1
2017-04-06T04:05:23.268Z,10.09
2017-04-06T04:05:49.347Z,10.1
2017-04-06T04:06:15.433Z,10.07
2017-04-06T04:06:41.510Z,9.94
2017-04-06T04:07:07.589Z,10.04
2017-04-06T04:07:33.670Z,9.97
2017-04-06T04:07:59.753Z,10.1
2017-04-06T04:08:25.833Z,10.02
2017-04-06T04:08:51.912Z,10.09
2017-04-06T04:09:17.992Z,9.97
2017-04-06T04:09:44.072Z,10.01
2017-04-06T04:10:10.149Z,9.98
2017-04-06T04:10:36.231Z,10.02
2017-04-06T04:11:02.314Z,9.98
2017-04-06T04:11:28.396Z,9.97
2017-04-06T04:11:54.473Z,9.84
2017-04-06T04:12:20.555Z,9.92
2017-04-06T04:12:46.636Z,9.98
2017-04-06T04:13:12.715Z,10.01
2017-04-06T04:13:38.842Z,10.04
2017-04-06T04:14:04.921Z,9.92
2017-04-06T04:14:30.999Z,9.95
2017-04-06T04:14:57.079Z,9.95
2017-04-06T04:15:23.202Z,9.94
2017-04-06T04:15:49.284Z,9.99
2017-04-06T04:16:15.387Z,9.95
2017-04-06T04:16:41.466Z,9.97
2017-04-06T04:17:07.549Z,9.99
2017-04-06T04:17:33.629Z,10.05
2017-04-06T04:17:59.730Z,10.02
2017-04-06T04:18:25.989Z,10.04
2017-04-06T04:18:52.044Z,9.97
2017-04-06T04:19:18.124Z,9.98
2017-04-06T04:19:44.203Z,9.95
2017-04-06T04:20:10.306Z,9.86
2017-04-06T04:20:36.385Z,9.91
2017-04-06T04:21:02.462Z,9.94
2017-04-06T04:21:28.570Z,9.83
2017-04-06T04:21:54.649Z,9.92
2017-04-06T04:22:20.754Z,9.94
2017-04-06T04:22:46.834Z,9.94
2017-04-06T04:23:12.938Z,10.01
2017-04-06T04:23:39.018Z,9.94
2017-04-06T04:24:05.122Z,9.97
2017-04-06T04:24:31.200Z,9.92
2017-04-06T04:24:57.279Z,9.92
2017-04-06T04:25:23.379Z,9.83
2017-04-06T04:25:49.437Z,9.86
2017-04-06T04:26:15.518Z,9.83
2017-04-06T04:26:41.596Z,9.92
2017-04-06T04:27:07.676Z,9.99
2017-04-06T04:27:33.755Z,9.95
2017-04-06T04:27:59.838Z,9.92
2017-04-06T04:28:25.938Z,10.02
2017-04-06T04:28:52.016Z,9.95
2017-04-06T04:29:18.143Z,9.94
2017-04-06T04:29:44.226Z,9.91
2017-04-06T04:30:10.305Z,9.92
2017-04-06T04:30:36.386Z,9.92
2017-04-06T04:31:02.467Z,9.92
2017-04-06T04:31:28.546Z,9.92
2017-04-06T04:31:54.628Z,9.98
2017-04-06T04:32:20.708Z,9.99
2017-04-06T04:32:46.791Z,10.04
2017-04-06T04:33:12.870Z,10.04
2017-04-06T04:33:38.970Z,9.97
2017-04-06T04:34:05.055Z,9.95
2017-04-06T04:34:31.162Z,9.83
2017-04-06T04:34:57.242Z,9.94
2017-04-06T04:35:23.349Z,9.91
2017-04-06T04:35:49.425Z,9.92
2017-04-06T04:36:15.551Z,9.82
2017-04-06T04:36:41.630Z,9.91
2017-04-06T04:37:07.709Z,9.92
2017-04-06T04:37:33.788Z,9.86
2017-04-06T04:37:59.869Z,9.87
2017-04-06T04:38:25.945Z,9.91
2017-04-06T04:38:52.050Z,9.97
2017-04-06T04:39:18.131Z,9.97
2017-04-06T04:39:44.207Z,10.01
2017-04-06T04:40:10.288Z,10.02
2017-04-06T04:40:36.369Z,10.04
2017-04-06T04:41:02.446Z,10.13
2017-04-06T04:41:28.526Z,10.07
2017-04-06T04:41:54.606Z,10.13
2017-04-06T04:42:20.707Z,10.12
2017-04-06T04:42:46.792Z,10.1
2017-04-06T04:43:12.867Z,10.04
2017-04-06T04:43:38.969Z,9.91
2017-04-06T04:44:05.048Z,9.95
2017-04-06T04:44:31.129Z,9.97
2017-04-06T04:44:57.210Z,9.94
2017-04-06T04:45:23.290Z,9.91
2017-04-06T04:45:49.371Z,9.95
2017-04-06T04:46:15.455Z,10.02
2017-04-06T04:46:41.559Z,9.94
2017-04-06T04:47:07.635Z,9.98
2017-04-06T04:47:33.738Z,10.02
2017-04-06T04:47:59.818Z,9.95
2017-04-06T04:48:25.896Z,9.99
2017-04-06T04:48:51.976Z,10.01
2017-04-06T04:49:18.058Z,9.99
2017-04-06T04:49:44.162Z,9.97
2017-04-06T04:50:10.241Z,10.02
2017-04-06T04:50:36.346Z,10.04
2017-04-06T04:51:02.429Z,10.01
2017-04-06T04:51:28.534Z,10.04
2017-04-06T04:51:54.617Z,9.99
2017-04-06T04:52:20.696Z,9.98
2017-04-06T04:52:46.776Z,9.97
2017-04-06T04:53:12.858Z,9.95
2017-04-06T04:53:38.960Z,9.97
2017-04-06T04:54:05.059Z,10.04
2017-04-06T04:54:31.143Z,10.02
2017-04-06T04:54:57.269Z,10.07
2017-04-06T04:55:23.350Z,10.09
2017-04-06T04:55:49.449Z,10.09
2017-04-06T04:56:15.532Z,10.07
2017-04-06T04:56:41.612Z,10.12
2017-04-06T04:57:07.691Z,9.99
2017-04-06T04:57:33.773Z,10.17
2017-04-06T04:57:59.887Z,10.13
2017-04-06T04:58:25.982Z,10.15
2017-04-06T04:58:52.059Z,10.16
2017-04-06T04:59:18.139Z,10.15
2017-04-06T04:59:44.219Z,10.19
2017-04-06T05:00:10.298Z,10.17
2017-04-06T05:00:36.424Z,10.12
2017-04-06T05:01:02.505Z,10.04
2017-04-06T05:01:28.698Z,10.05
2017-04-06T05:01:54.824Z,10.04
2017-04-06T05:02:20.902Z,10.12
2017-04-06T05:02:46.982Z,10.1
2017-04-06T05:03:13.064Z,10.02
2017-04-06T05:03:39.145Z,10.04
2017-04-06T05:04:05.223Z,10.15
2017-04-06T05:04:31.306Z,10.13
2017-04-06T05:04:57.386Z,10.16
2017-04-06T05:05:23.464Z,10.02
2017-04-06T05:05:49.544Z,10.04
2017-04-06T05:06:15.647Z,10.02
2017-04-06T05:06:41.750Z,10.02
2017-04-06T05:07:07.831Z,10.01
2017-04-06T05:07:33.952Z,10.04
2017-04-06T05:08:00.034Z,10.05
2017-04-06T05:08:26.136Z,10.07
2017-04-06T05:08:52.214Z,10.09
2017-04-06T05:09:18.295Z,10.02
2017-04-06T05:09:44.376Z,10.01
2017-04-06T05:10:10.452Z,10.05
2017-04-06T05:10:36.535Z,9.95
2017-04-06T05:11:02.617Z,9.92
2017-04-06T05:11:28.693Z,9.92
2017-04-06T05:11:54.773Z,9.95
2017-04-06T05:12:20.854Z,9.97
2017-04-06T05:12:46.933Z,9.79
2017-04-06T05:13:13.014Z,9.86
2017-04-06T05:13:39.096Z,9.87
2017-04-06T05:14:05.171Z,9.87
2017-04-06T05:14:31.253Z,9.8
2017-04-06T05:14:57.336Z,9.87
2017-04-06T05:15:23.416Z,9.87
2017-04-06T05:15:49.495Z,9.94
2017-04-06T05:16:15.577Z,9.97
2017-04-06T05:16:41.657Z,9.95
2017-04-06T05:17:07.735Z,10.02
2017-04-06T05:17:33.815Z,9.92
2017-04-06T05:17:59.918Z,9.97
2017-04-06T05:18:26.027Z,10.04
2017-04-06T05:18:52.130Z,10.09
2017-04-06T05:19:18.208Z,10.1
2017-04-06T05:19:44.290Z,10.07
2017-04-06T05:20:10.367Z,10.07
2017-04-06T05:20:36.445Z,10.12
2017-04-06T05:21:02.551Z,9.99
2017-04-06T05:21:28.629Z,10.12
2017-04-06T05:21:54.735Z,10.02
2017-04-06T05:22:20.813Z,10.05
2017-04-06T05:22:46.895Z,10.15
2017-04-06T05:23:12.976Z,10.1
2017-04-06T05:23:39.056Z,10.15
2017-04-06T05:24:05.135Z,10.12
2017-04-06T05:24:31.219Z,10.13
2017-04-06T05:24:57.295Z,10.15
2017-04-06T05:25:23.376Z,10.07
2017-04-06T05:25:49.459Z,10.13
2017-04-06T05:26:15.539Z,10.13
2017-04-06T05:26:41.617Z,10.12
2017-04-06T05:27:07.697Z,10.04
2017-04-06T05:27:33.781Z,10.04
2017-04-06T05:27:59.863Z,10.1
2017-04-06T05:28:25.943Z,10.05
2017-04-06T05:28:52.024Z,10.13
2017-04-06T05:29:18.105Z,9.99
2017-04-06T05:29:44.209Z,10.15
2017-04-06T05:30:10.291Z,10.13
2017-04-06T05:30:36.370Z,10.17
2017-04-06T05:31:02.471Z,10.19
2017-04-06T05:31:28.574Z,10.23
2017-04-06T05:31:54.677Z,10.2
2017-04-06T05:32:20.758Z,10.3
2017-04-06T05:32:46.839Z,10.3
2017-04-06T05:33:12.919Z,10.23
2017-04-06T05:33:39.024Z,10.28
2017-04-06T05:34:05.101Z,10.3
2017-04-06T05:34:31.179Z,10.25
2017-04-06T05:34:57.257Z,10.28
2017-04-06T05:35:23.339Z,10.26
2017-04-06T05:35:49.441Z,10.28
2017-04-06T05:36:15.565Z,10.28
2017-04-06T05:36:41.668Z,10.26
2017-04-06T05:37:07.746Z,10.31
2017-04-06T05:37:33.848Z,10.3
2017-04-06T05:37:59.927Z,10.23
2017-04-06T05:38:26.010Z,10.33
2017-04-06T05:38:52.087Z,10.25
2017-04-06T05:39:18.169Z,10.25